La rose des vents
Donnes mto: Semaine 14/05/07 - 20/05/07 (S 20)
Date Horaire Temp. E. Hum. E. P.atmo. Pluie Vent 1mn Direction Ensoleilleme Ev.Tr. Solaire P. de rose Temp au vent Rafales
14/05/2007 00:00 16,0 C 83 % 1014,8 hPa 0,0 l/m 3,2 km/h (1 Bft) O-NO 0,00 h 0,025 mm 0 W/m 13,1 C 16,0 C 5,3 km/h (1 Bft)
14/05/2007 01:00 15,7 C 80 % 1014,5 hPa 0,0 l/m 4,1 km/h (1 Bft) NO 0,00 h 0,025 mm 0 W/m 12,3 C 15,7 C 6,4 km/h (2 Bft)
14/05/2007 02:00 16,0 C 72 % 1013,9 hPa 0,0 l/m 3,0 km/h (1 Bft) NO 0,00 h 0,025 mm 0 W/m 10,8 C 16,0 C 4,6 km/h (1 Bft)
14/05/2007 03:00 16,6 C 63 % 1013,3 hPa 0,0 l/m 1,5 km/h (1 Bft) NO 0,00 h 0,025 mm 0 W/m 9,5 C 16,6 C 2,9 km/h (1 Bft)
14/05/2007 04:00 15,9 C 65 % 1013,2 hPa 0,0 l/m 0,3 km/h (0 Bft) NO 0,00 h 0,051 mm 0 W/m 9,4 C 15,9 C 0,9 km/h (0 Bft)
14/05/2007 05:00 15,2 C 68 % 1012,9 hPa 0,0 l/m 2,8 km/h (1 Bft) NE 0,00 h 0,025 mm 0 W/m 9,2 C 15,2 C 4,7 km/h (1 Bft)
14/05/2007 06:00 15,3 C 72 % 1012,9 hPa 0,0 l/m 5,5 km/h (1 Bft) N-NE 0,00 h 0,025 mm 19 W/m 10,3 C 15,3 C 8,4 km/h (2 Bft)
14/05/2007 07:00 15,8 C 74 % 1013,0 hPa 0,0 l/m 2,3 km/h (1 Bft) N-NE 0,47 h 0,025 mm 125 W/m 11,2 C 15,8 C 4,6 km/h (1 Bft)
14/05/2007 08:00 18,1 C 76 % 1013,2 hPa 0,0 l/m 1,1 km/h (1 Bft) NE 0,88 h 0,076 mm 246 W/m 13,9 C 18,1 C 2,7 km/h (1 Bft)
14/05/2007 09:00 18,9 C 79 % 1013,2 hPa 0,0 l/m 2,7 km/h (1 Bft) E-NE 0,22 h 0,152 mm 274 W/m 15,2 C 18,9 C 4,9 km/h (1 Bft)
14/05/2007 10:00 20,4 C 72 % 1012,9 hPa 0,0 l/m 6,5 km/h (2 Bft) E 0,43 h 0,178 mm 391 W/m 15,3 C 20,4 C 9,4 km/h (2 Bft)
14/05/2007 11:00 21,1 C 68 % 1012,3 hPa 0,0 l/m 12,6 km/h (3 Bft) E 0,37 h 0,254 mm 405 W/m 15,0 C 21,1 C 17,7 km/h (3 Bft)
14/05/2007 12:00 21,8 C 65 % 1011,5 hPa 0,0 l/m 16,6 km/h (3 Bft) E-NE 0,43 h 0,330 mm 537 W/m 14,8 C 21,8 C 21,7 km/h (4 Bft)
14/05/2007 13:00 21,2 C 71 % 1011,3 hPa 0,0 l/m 12,1 km/h (2 Bft) E-NE 0,22 h 0,406 mm 403 W/m 15,6 C 21,2 C 16,9 km/h (3 Bft)
14/05/2007 14:00 20,8 C 71 % 1011,1 hPa 0,0 l/m 3,7 km/h (1 Bft) E-NE 0,15 h 0,279 mm 283 W/m 15,3 C 20,8 C 6,8 km/h (2 Bft)
14/05/2007 15:00 21,3 C 69 % 1010,3 hPa 0,0 l/m 3,1 km/h (1 Bft) E 0,00 h 0,203 mm 262 W/m 15,3 C 21,3 C 5,8 km/h (2 Bft)
14/05/2007 16:00 21,3 C 72 % 1009,8 hPa 0,0 l/m 4,9 km/h (1 Bft) E 0,45 h 0,203 mm 427 W/m 16,0 C 21,3 C 8,2 km/h (2 Bft)
14/05/2007 17:00 22,2 C 65 % 1009,2 hPa 0,0 l/m 5,0 km/h (1 Bft) E 0,77 h 0,279 mm 419 W/m 15,3 C 22,2 C 8,9 km/h (2 Bft)
14/05/2007 18:00 20,6 C 75 % 1009,0 hPa 0,0 l/m 4,2 km/h (1 Bft) E 0,42 h 0,279 mm 163 W/m 16,0 C 20,6 C 7,3 km/h (2 Bft)
14/05/2007 19:00 19,0 C 85 % 1008,9 hPa 0,0 l/m 1,4 km/h (1 Bft) SE 0,00 h 0,127 mm 42 W/m 16,4 C 19,0 C 3,0 km/h (1 Bft)
14/05/2007 20:00 17,8 C 90 % 1008,7 hPa 0,0 l/m 1,0 km/h (0 Bft) O-SO 0,00 h 0,025 mm 10 W/m 16,1 C 17,8 C 1,9 km/h (1 Bft)
14/05/2007 21:00 16,6 C 85 % 1008,8 hPa 0,0 l/m 8,1 km/h (2 Bft) O-SO 0,00 h 0,000 mm 0 W/m 14,1 C 16,6 C 11,7 km/h (2 Bft)
14/05/2007 22:00 15,7 C 75 % 1008,8 hPa 0,0 l/m 12,6 km/h (3 Bft) O 0,00 h 0,025 mm 0 W/m 11,2 C 15,7 C 17,4 km/h (3 Bft)
14/05/2007 23:00 14,9 C 75 % 1008,8 hPa 0,0 l/m 5,1 km/h (1 Bft) O 0,00 h 0,051 mm 0 W/m 10,4 C 14,9 C 6,8 km/h (2 Bft)
15/05/2007 00:00 14,8 C 67 % 1008,7 hPa 0,0 l/m 9,0 km/h (2 Bft) O 0,00 h 0,025 mm 0 W/m 8,7 C 14,8 C 12,5 km/h (3 Bft)
15/05/2007 01:00 15,1 C 60 % 1008,7 hPa 0,0 l/m 7,0 km/h (2 Bft) NO 0,00 h 0,051 mm 0 W/m 7,3 C 15,1 C 10,8 km/h (2 Bft)
15/05/2007 02:00 14,4 C 54 % 1008,4 hPa 0,0 l/m 16,7 km/h (3 Bft) O-SO 0,00 h 0,051 mm 0 W/m 5,3 C 14,4 C 20,5 km/h (4 Bft)
15/05/2007 03:00 14,5 C 48 % 1008,3 hPa 0,0 l/m 18,4 km/h (3 Bft) SO 0,00 h 0,102 mm 0 W/m 3,6 C 14,5 C 23,6 km/h (4 Bft)
15/05/2007 04:00 13,5 C 52 % 1007,9 hPa 0,0 l/m 15,5 km/h (3 Bft) SO 0,00 h 0,127 mm 0 W/m 3,8 C 13,5 C 19,7 km/h (3 Bft)
15/05/2007 05:00 13,6 C 53 % 1007,5 hPa 0,0 l/m 14,7 km/h (3 Bft) O-SO 0,00 h 0,102 mm 0 W/m 4,3 C 13,6 C 20,3 km/h (4 Bft)
15/05/2007 06:00 13,3 C 55 % 1007,2 hPa 0,0 l/m 10,3 km/h (2 Bft) O-NO 0,02 h 0,102 mm 14 W/m 4,4 C 13,3 C 15,8 km/h (3 Bft)
15/05/2007 07:00 14,4 C 56 % 1007,4 hPa 0,0 l/m 7,7 km/h (2 Bft) O-SO 0,48 h 0,076 mm 149 W/m 5,7 C 14,4 C 12,4 km/h (3 Bft)
15/05/2007 08:00 17,9 C 47 % 1007,7 hPa 0,0 l/m 3,4 km/h (1 Bft) E 1,00 h 0,127 mm 385 W/m 6,4 C 17,9 C 5,7 km/h (1 Bft)
15/05/2007 09:00 19,8 C 42 % 1008,0 hPa 0,0 l/m 5,8 km/h (2 Bft) E 1,00 h 0,254 mm 521 W/m 6,5 C 19,8 C 9,6 km/h (2 Bft)
15/05/2007 10:00 21,3 C 43 % 1008,8 hPa 0,0 l/m 10,7 km/h (2 Bft) E 1,00 h 0,356 mm 697 W/m 8,1 C 21,3 C 16,5 km/h (3 Bft)
15/05/2007 11:00 21,5 C 55 % 1009,1 hPa 0,0 l/m 10,0 km/h (2 Bft) E 0,98 h 0,508 mm 792 W/m 12,0 C 21,5 C 15,4 km/h (3 Bft)
15/05/2007 12:00 22,2 C 48 % 1009,3 hPa 0,0 l/m 13,6 km/h (3 Bft) E-NE 1,00 h 0,533 mm 868 W/m 10,5 C 22,2 C 19,6 km/h (3 Bft)
15/05/2007 13:00 23,0 C 47 % 1009,3 hPa 0,0 l/m 16,3 km/h (3 Bft) E-NE 1,00 h 0,635 mm 893 W/m 11,0 C 23,0 C 21,5 km/h (4 Bft)
15/05/2007 14:00 22,9 C 48 % 1009,4 hPa 0,0 l/m 17,5 km/h (3 Bft) E-NE 0,88 h 0,660 mm 774 W/m 11,2 C 22,9 C 23,4 km/h (4 Bft)
15/05/2007 15:00 22,7 C 49 % 1009,6 hPa 0,0 l/m 19,1 km/h (3 Bft) E-NE 1,00 h 0,610 mm 774 W/m 11,3 C 22,7 C 25,4 km/h (4 Bft)
15/05/2007 16:00 21,9 C 51 % 1009,7 hPa 0,0 l/m 19,9 km/h (4 Bft) E-NE 1,00 h 0,610 mm 645 W/m 11,4 C 21,9 C 26,4 km/h (4 Bft)
15/05/2007 17:00 20,9 C 51 % 1010,1 hPa 0,0 l/m 18,2 km/h (3 Bft) E-NE 1,00 h 0,533 mm 491 W/m 10,4 C 20,9 C 24,5 km/h (4 Bft)
15/05/2007 18:00 19,5 C 55 % 1010,6 hPa 0,0 l/m 7,9 km/h (2 Bft) E 0,58 h 0,432 mm 253 W/m 10,1 C 19,5 C 14,6 km/h (3 Bft)
15/05/2007 19:00 19,0 C 56 % 1010,8 hPa 0,0 l/m 4,3 km/h (1 Bft) S-SE 0,47 h 0,203 mm 121 W/m 9,9 C 19,0 C 7,3 km/h (2 Bft)
15/05/2007 20:00 16,8 C 63 % 1011,0 hPa 0,0 l/m 5,9 km/h (2 Bft) SO 0,02 h 0,102 mm 16 W/m 9,6 C 16,8 C 7,9 km/h (2 Bft)
15/05/2007 21:00 15,4 C 67 % 1011,3 hPa 0,0 l/m 7,2 km/h (2 Bft) O 0,00 h 0,051 mm 0 W/m 9,2 C 15,4 C 9,9 km/h (2 Bft)
15/05/2007 22:00 14,8 C 70 % 1011,7 hPa 0,0 l/m 7,9 km/h (2 Bft) O-NO 0,00 h 0,051 mm 0 W/m 9,4 C 14,8 C 10,8 km/h (2 Bft)
15/05/2007 23:00 13,9 C 70 % 1011,9 hPa 0,0 l/m 2,2 km/h (1 Bft) O-NO 0,00 h 0,051 mm 0 W/m 8,5 C 13,9 C 3,6 km/h (1 Bft)
16/05/2007 00:00 13,3 C 69 % 1012,3 hPa 0,0 l/m 1,3 km/h (1 Bft) N-NE 0,00 h 0,025 mm 0 W/m 7,7 C 13,3 C 3,0 km/h (1 Bft)
16/05/2007 01:00 13,4 C 65 % 1012,3 hPa 0,0 l/m 1,4 km/h (1 Bft) O-NO 0,00 h 0,025 mm 0 W/m 6,9 C 13,4 C 2,6 km/h (1 Bft)
16/05/2007 02:00 12,7 C 70 % 1012,5 hPa 0,0 l/m 2,3 km/h (1 Bft) N 0,00 h 0,025 mm 0 W/m 7,3 C 12,7 C 4,2 km/h (1 Bft)
16/05/2007 03:00 13,6 C 74 % 1012,4 hPa 0,0 l/m 3,5 km/h (1 Bft) NO 0,00 h 0,025 mm 0 W/m 9,0 C 13,6 C 5,3 km/h (1 Bft)
16/05/2007 04:00 13,1 C 66 % 1012,4 hPa 0,0 l/m 8,4 km/h (2 Bft) O-NO 0,00 h 0,025 mm 0 W/m 6,9 C 13,1 C 12,0 km/h (2 Bft)
16/05/2007 05:00 12,5 C 63 % 1012,5 hPa 0,0 l/m 10,4 km/h (2 Bft) O-NO 0,00 h 0,051 mm 0 W/m 5,7 C 12,5 C 14,9 km/h (3 Bft)
16/05/2007 06:00 12,4 C 65 % 1012,4 hPa 0,0 l/m 8,8 km/h (2 Bft) O-NO 0,07 h 0,051 mm 18 W/m 6,0 C 12,4 C 12,7 km/h (3 Bft)
16/05/2007 07:00 13,8 C 59 % 1012,5 hPa 0,0 l/m 7,0 km/h (2 Bft) O-NO 0,50 h 0,051 mm 124 W/m 6,0 C 13,8 C 10,2 km/h (2 Bft)
16/05/2007 08:00 16,8 C 54 % 1012,6 hPa 0,0 l/m 0,9 km/h (0 Bft) N 1,00 h 0,102 mm 353 W/m 7,5 C 16,8 C 2,5 km/h (1 Bft)
16/05/2007 09:00 18,9 C 55 % 1012,5 hPa 0,0 l/m 3,0 km/h (1 Bft) E 1,00 h 0,203 mm 503 W/m 9,5 C 18,9 C 5,4 km/h (1 Bft)
16/05/2007 10:00 19,5 C 59 % 1012,5 hPa 0,0 l/m 7,8 km/h (2 Bft) S 1,00 h 0,305 mm 654 W/m 11,4 C 19,5 C 12,2 km/h (2 Bft)
16/05/2007 11:00 20,6 C 50 % 1012,4 hPa 0,0 l/m 9,9 km/h (2 Bft) S 1,00 h 0,432 mm 829 W/m 9,8 C 20,6 C 15,7 km/h (3 Bft)
16/05/2007 12:00 21,0 C 43 % 1012,4 hPa 0,0 l/m 14,3 km/h (3 Bft) S-SE 1,00 h 0,559 mm 886 W/m 7,9 C 21,0 C 20,7 km/h (4 Bft)
16/05/2007 13:00 21,2 C 39 % 1012,4 hPa 0,0 l/m 11,4 km/h (2 Bft) S 1,00 h 0,635 mm 930 W/m 6,5 C 21,2 C 17,3 km/h (3 Bft)
16/05/2007 14:00 21,5 C 41 % 1012,1 hPa 0,0 l/m 13,2 km/h (3 Bft) E 1,00 h 0,660 mm 799 W/m 7,7 C 21,5 C 19,5 km/h (3 Bft)
16/05/2007 15:00 20,3 C 45 % 1011,9 hPa 0,0 l/m 11,6 km/h (2 Bft) E 0,70 h 0,584 mm 532 W/m 8,1 C 20,3 C 16,3 km/h (3 Bft)
16/05/2007 16:00 20,9 C 46 % 1011,5 hPa 0,0 l/m 8,2 km/h (2 Bft) E 1,00 h 0,406 mm 657 W/m 8,7 C 20,9 C 13,2 km/h (3 Bft)
16/05/2007 17:00 20,6 C 44 % 1011,1 hPa 0,0 l/m 9,1 km/h (2 Bft) E-NE 1,00 h 0,457 mm 477 W/m 7,9 C 20,6 C 13,3 km/h (3 Bft)
16/05/2007 18:00 19,6 C 46 % 1010,8 hPa 0,0 l/m 8,6 km/h (2 Bft) E-NE 1,00 h 0,356 mm 284 W/m 7,5 C 19,6 C 12,5 km/h (3 Bft)
16/05/2007 19:00 18,8 C 47 % 1010,5 hPa 0,0 l/m 6,0 km/h (2 Bft) NE 0,92 h 0,229 mm 159 W/m 7,2 C 18,8 C 8,8 km/h (2 Bft)
16/05/2007 20:00 16,7 C 52 % 1010,5 hPa 0,0 l/m 3,3 km/h (1 Bft) E-NE 0,00 h 0,152 mm 24 W/m 6,8 C 16,7 C 4,8 km/h (1 Bft)
16/05/2007 21:00 15,4 C 56 % 1010,6 hPa 0,0 l/m 2,2 km/h (1 Bft) O 0,00 h 0,051 mm 0 W/m 6,7 C 15,4 C 3,0 km/h (1 Bft)
16/05/2007 22:00 15,0 C 58 % 1010,8 hPa 0,0 l/m 6,1 km/h (2 Bft) O 0,00 h 0,025 mm 0 W/m 6,8 C 15,0 C 7,6 km/h (2 Bft)
16/05/2007 23:00 14,5 C 61 % 1010,8 hPa 0,0 l/m 6,4 km/h (2 Bft) O-NO 0,00 h 0,051 mm 0 W/m 7,1 C 14,5 C 8,1 km/h (2 Bft)
17/05/2007 00:00 14,1 C 63 % 1010,6 hPa 0,0 l/m 5,8 km/h (2 Bft) O-NO 0,00 h 0,051 mm 0 W/m 7,2 C 14,1 C 7,6 km/h (2 Bft)
17/05/2007 01:00 14,3 C 65 % 1010,3 hPa 0,0 l/m 4,7 km/h (1 Bft) O 0,00 h 0,051 mm 0 W/m 7,8 C 14,3 C 6,3 km/h (2 Bft)
17/05/2007 02:00 13,5 C 69 % 1010,2 hPa 0,0 l/m 2,5 km/h (1 Bft) N-NO 0,00 h 0,051 mm 0 W/m 7,9 C 13,5 C 4,0 km/h (1 Bft)
17/05/2007 03:00 13,4 C 69 % 1010,0 hPa 0,0 l/m 4,1 km/h (1 Bft) O-NO 0,00 h 0,025 mm 0 W/m 7,9 C 13,4 C 5,6 km/h (1 Bft)
17/05/2007 04:00 13,6 C 76 % 1009,7 hPa 0,0 l/m 7,2 km/h (2 Bft) O 0,00 h 0,051 mm 0 W/m 9,5 C 13,6 C 8,2 km/h (2 Bft)
17/05/2007 05:00 13,2 C 78 % 1009,2 hPa 0,0 l/m 7,4 km/h (2 Bft) O 0,00 h 0,051 mm 0 W/m 9,5 C 13,2 C 9,8 km/h (2 Bft)
17/05/2007 06:00 13,1 C 80 % 1009,4 hPa 0,0 l/m 6,9 km/h (2 Bft) O-NO 0,05 h 0,025 mm 27 W/m 9,7 C 13,1 C 9,1 km/h (2 Bft)
17/05/2007 07:00 14,4 C 78 % 1009,3 hPa 0,0 l/m 4,7 km/h (1 Bft) O-NO 0,58 h 0,025 mm 165 W/m 10,6 C 14,4 C 7,3 km/h (2 Bft)
17/05/2007 08:00 16,9 C 74 % 1009,3 hPa 0,0 l/m 4,7 km/h (1 Bft) S 1,00 h 0,102 mm 362 W/m 12,3 C 16,9 C 7,7 km/h (2 Bft)
17/05/2007 09:00 18,2 C 68 % 1009,2 hPa 0,0 l/m 4,3 km/h (1 Bft) SO 1,00 h 0,229 mm 497 W/m 12,3 C 18,2 C 7,4 km/h (2 Bft)
17/05/2007 10:00 19,6 C 62 % 1008,7 hPa 0,0 l/m 5,9 km/h (2 Bft) E 1,00 h 0,305 mm 610 W/m 12,1 C 19,6 C 9,3 km/h (2 Bft)
17/05/2007 11:00 20,3 C 52 % 1008,4 hPa 0,0 l/m 9,1 km/h (2 Bft) E 1,00 h 0,381 mm 760 W/m 9,9 C 20,3 C 13,5 km/h (3 Bft)
17/05/2007 12:00 21,1 C 52 % 1008,1 hPa 0,0 l/m 9,6 km/h (2 Bft) E 1,00 h 0,508 mm 796 W/m 11,0 C 21,1 C 13,9 km/h (3 Bft)
17/05/2007 13:00 21,6 C 58 % 1007,4 hPa 0,0 l/m 10,6 km/h (2 Bft) E 1,00 h 0,533 mm 879 W/m 12,9 C 21,6 C 16,0 km/h (3 Bft)
17/05/2007 14:00 20,7 C 63 % 1006,9 hPa 0,0 l/m 10,8 km/h (2 Bft) E 1,00 h 0,584 mm 842 W/m 13,5 C 20,7 C 16,0 km/h (3 Bft)
17/05/2007 15:00 20,4 C 64 % 1006,1 hPa 0,0 l/m 8,6 km/h (2 Bft) E 1,00 h 0,559 mm 754 W/m 13,4 C 20,4 C 13,7 km/h (3 Bft)
17/05/2007 16:00 20,2 C 66 % 1005,3 hPa 0,0 l/m 7,1 km/h (2 Bft) E 1,00 h 0,483 mm 628 W/m 13,6 C 20,2 C 12,8 km/h (3 Bft)
17/05/2007 17:00 19,4 C 69 % 1005,0 hPa 0,0 l/m 9,1 km/h (2 Bft) E 1,00 h 0,406 mm 490 W/m 13,7 C 19,4 C 14,5 km/h (3 Bft)
17/05/2007 18:00 19,0 C 73 % 1005,0 hPa 0,0 l/m 6,7 km/h (2 Bft) E 0,92 h 0,330 mm 313 W/m 14,1 C 19,0 C 11,2 km/h (2 Bft)
17/05/2007 19:00 18,4 C 75 % 1004,8 hPa 0,0 l/m 3,4 km/h (1 Bft) E 0,92 h 0,203 mm 148 W/m 13,9 C 18,4 C 6,1 km/h (2 Bft)
17/05/2007 20:00 16,5 C 81 % 1004,8 hPa 0,0 l/m 1,1 km/h (0 Bft) E-SE 0,02 h 0,102 mm 15 W/m 13,2 C 16,5 C 2,6 km/h (1 Bft)
17/05/2007 21:00 15,5 C 83 % 1005,0 hPa 0,0 l/m 0,7 km/h (0 Bft) E-SE 0,00 h 0,025 mm 0 W/m 12,7 C 15,5 C 1,7 km/h (1 Bft)
17/05/2007 22:00 15,2 C 86 % 1005,9 hPa 0,0 l/m 0,4 km/h (0 Bft) E-SE 0,00 h 0,000 mm 0 W/m 13,0 C 15,2 C 1,0 km/h (0 Bft)
17/05/2007 23:00 14,7 C 89 % 1006,0 hPa 0,0 l/m 3,0 km/h (1 Bft) O-NO 0,00 h 0,025 mm 0 W/m 12,8 C 14,7 C 4,6 km/h (1 Bft)
18/05/2007 00:00 14,0 C 91 % 1006,2 hPa 0,0 l/m 7,2 km/h (2 Bft) O-NO 0,00 h 0,025 mm 0 W/m 12,5 C 14,0 C 9,9 km/h (2 Bft)
18/05/2007 01:00 13,8 C 90 % 1006,3 hPa 0,0 l/m 7,0 km/h (2 Bft) O-NO 0,00 h 0,025 mm 0 W/m 12,2 C 13,8 C 9,1 km/h (2 Bft)
18/05/2007 02:00 13,7 C 83 % 1006,5 hPa 0,0 l/m 4,7 km/h (1 Bft) O-NO 0,00 h 0,025 mm 0 W/m 10,8 C 13,7 C 7,3 km/h (2 Bft)
18/05/2007 03:00 13,5 C 81 % 1006,8 hPa 0,0 l/m 1,9 km/h (1 Bft) NO 0,00 h 0,025 mm 0 W/m 10,4 C 13,5 C 3,7 km/h (1 Bft)
18/05/2007 04:00 13,8 C 79 % 1006,8 hPa 0,0 l/m 3,1 km/h (1 Bft) NO 0,00 h 0,025 mm 0 W/m 10,3 C 13,8 C 4,8 km/h (1 Bft)
18/05/2007 05:00 14,2 C 77 % 1007,3 hPa 0,0 l/m 4,1 km/h (1 Bft) SO 0,00 h 0,025 mm 0 W/m 10,2 C 14,2 C 5,3 km/h (1 Bft)
18/05/2007 06:00 14,2 C 78 % 1007,9 hPa 0,0 l/m 1,0 km/h (0 Bft) O-SO 0,03 h 0,025 mm 15 W/m 10,4 C 14,2 C 1,7 km/h (1 Bft)
18/05/2007 07:00 15,7 C 76 % 1008,4 hPa 0,0 l/m 0,1 km/h (0 Bft) O-SO 0,52 h 0,025 mm 122 W/m 11,5 C 15,7 C 0,5 km/h (0 Bft)
18/05/2007 08:00 18,7 C 68 % 1009,2 hPa 0,0 l/m 2,6 km/h (1 Bft) E 1,00 h 0,076 mm 347 W/m 12,6 C 18,7 C 4,6 km/h (1 Bft)
18/05/2007 09:00 19,2 C 75 % 1010,3 hPa 0,0 l/m 7,6 km/h (2 Bft) E 0,68 h 0,203 mm 416 W/m 14,7 C 19,2 C 12,5 km/h (3 Bft)
18/05/2007 10:00 19,8 C 74 % 1011,2 hPa 0,0 l/m 5,9 km/h (2 Bft) E 0,80 h 0,279 mm 598 W/m 15,0 C 19,8 C 10,3 km/h (2 Bft)
18/05/2007 11:00 21,6 C 58 % 1011,6 hPa 0,0 l/m 5,1 km/h (1 Bft) S-SE 1,00 h 0,356 mm 785 W/m 12,9 C 21,6 C 9,4 km/h (2 Bft)
18/05/2007 12:00 22,8 C 53 % 1011,9 hPa 0,0 l/m 8,6 km/h (2 Bft) E 1,00 h 0,508 mm 856 W/m 12,8 C 22,8 C 13,7 km/h (3 Bft)
18/05/2007 13:00 23,2 C 54 % 1012,3 hPa 0,0 l/m 10,3 km/h (2 Bft) E 1,00 h 0,584 mm 872 W/m 13,5 C 23,2 C 16,0 km/h (3 Bft)
18/05/2007 14:00 23,1 C 49 % 1012,5 hPa 0,0 l/m 8,5 km/h (2 Bft) E 1,00 h 0,610 mm 848 W/m 11,9 C 23,1 C 14,1 km/h (3 Bft)
18/05/2007 15:00 23,0 C 44 % 1012,4 hPa 0,0 l/m 9,9 km/h (2 Bft) E 1,00 h 0,584 mm 767 W/m 10,2 C 23,0 C 15,2 km/h (3 Bft)
18/05/2007 16:00 23,1 C 38 % 1012,2 hPa 0,0 l/m 7,7 km/h (2 Bft) E 1,00 h 0,559 mm 645 W/m 8,1 C 23,1 C 12,2 km/h (2 Bft)
18/05/2007 17:00 23,2 C 40 % 1012,0 hPa 0,0 l/m 6,1 km/h (2 Bft) E 1,00 h 0,457 mm 491 W/m 8,7 C 23,2 C 9,9 km/h (2 Bft)
18/05/2007 18:00 22,4 C 39 % 1011,9 hPa 0,0 l/m 3,6 km/h (1 Bft) S-SE 1,00 h 0,356 mm 316 W/m 7,8 C 22,4 C 5,9 km/h (2 Bft)
18/05/2007 19:00 21,7 C 42 % 1011,8 hPa 0,0 l/m 2,0 km/h (1 Bft) S-SE 0,92 h 0,229 mm 154 W/m 8,3 C 21,7 C 3,9 km/h (1 Bft)
18/05/2007 20:00 19,9 C 43 % 1012,1 hPa 0,0 l/m 3,5 km/h (1 Bft) S-SO 0,03 h 0,127 mm 19 W/m 6,9 C 19,9 C 5,1 km/h (1 Bft)
18/05/2007 21:00 18,2 C 50 % 1012,4 hPa 0,0 l/m 6,5 km/h (2 Bft) O-NO 0,00 h 0,051 mm 0 W/m 7,5 C 18,2 C 8,8 km/h (2 Bft)
18/05/2007 22:00 17,8 C 55 % 1012,7 hPa 0,0 l/m 9,9 km/h (2 Bft) O-NO 0,00 h 0,051 mm 0 W/m 8,7 C 17,8 C 13,3 km/h (3 Bft)
18/05/2007 23:00 17,5 C 58 % 1012,7 hPa 0,0 l/m 7,9 km/h (2 Bft) NO 0,00 h 0,076 mm 0 W/m 9,1 C 17,5 C 11,4 km/h (2 Bft)
19/05/2007 00:00 17,6 C 57 % 1012,4 hPa 0,0 l/m 5,0 km/h (1 Bft) O-NO 0,00 h 0,076 mm 0 W/m 9,1 C 17,6 C 7,9 km/h (2 Bft)
19/05/2007 01:00 16,5 C 62 % 1012,4 hPa 0,0 l/m 2,5 km/h (1 Bft) NO 0,00 h 0,051 mm 0 W/m 9,2 C 16,5 C 4,0 km/h (1 Bft)
19/05/2007 02:00 16,5 C 62 % 1012,1 hPa 0,0 l/m 2,3 km/h (1 Bft) SO 0,00 h 0,051 mm 0 W/m 9,2 C 16,5 C 3,2 km/h (1 Bft)
19/05/2007 03:00 16,3 C 64 % 1012,2 hPa 0,0 l/m 3,8 km/h (1 Bft) O-SO 0,00 h 0,051 mm 0 W/m 9,4 C 16,3 C 5,3 km/h (1 Bft)
19/05/2007 04:00 16,1 C 65 % 1012,0 hPa 0,0 l/m 2,6 km/h (1 Bft) NO 0,00 h 0,051 mm 0 W/m 9,5 C 16,1 C 4,4 km/h (1 Bft)
19/05/2007 05:00 16,1 C 64 % 1012,0 hPa 0,0 l/m 2,4 km/h (1 Bft) NO 0,00 h 0,051 mm 0 W/m 9,3 C 16,1 C 4,1 km/h (1 Bft)
19/05/2007 06:00 15,5 C 66 % 1012,2 hPa 0,0 l/m 4,1 km/h (1 Bft) O-NO 0,03 h 0,025 mm 17 W/m 9,1 C 15,5 C 7,0 km/h (2 Bft)
19/05/2007 07:00 17,0 C 64 % 1012,6 hPa 0,0 l/m 0,2 km/h (0 Bft) O-NO 0,50 h 0,025 mm 124 W/m 10,2 C 17,0 C 0,9 km/h (0 Bft)
19/05/2007 08:00 19,8 C 59 % 1012,8 hPa 0,0 l/m 3,4 km/h (1 Bft) E 1,00 h 0,076 mm 340 W/m 11,4 C 19,8 C 4,9 km/h (1 Bft)
19/05/2007 09:00 21,0 C 61 % 1013,1 hPa 0,0 l/m 5,0 km/h (1 Bft) E 1,00 h 0,229 mm 507 W/m 13,2 C 21,0 C 8,1 km/h (2 Bft)
19/05/2007 10:00 22,2 C 59 % 1012,8 hPa 0,0 l/m 7,8 km/h (2 Bft) E 1,00 h 0,330 mm 661 W/m 13,7 C 22,2 C 11,9 km/h (2 Bft)
19/05/2007 11:00 22,7 C 59 % 1012,8 hPa 0,0 l/m 10,0 km/h (2 Bft) E 1,00 h 0,457 mm 773 W/m 14,4 C 22,7 C 15,3 km/h (3 Bft)
19/05/2007 12:00 22,6 C 62 % 1013,0 hPa 0,0 l/m 11,8 km/h (2 Bft) E 1,00 h 0,533 mm 840 W/m 15,0 C 22,6 C 17,0 km/h (3 Bft)
19/05/2007 13:00 22,8 C 62 % 1012,8 hPa 0,0 l/m 9,8 km/h (2 Bft) E 1,00 h 0,584 mm 863 W/m 15,0 C 22,8 C 15,2 km/h (3 Bft)
19/05/2007 14:00 23,5 C 61 % 1012,5 hPa 0,0 l/m 11,5 km/h (2 Bft) E 1,00 h 0,584 mm 832 W/m 15,6 C 23,5 C 16,4 km/h (3 Bft)
19/05/2007 15:00 23,9 C 55 % 1012,4 hPa 0,0 l/m 7,4 km/h (2 Bft) E 1,00 h 0,584 mm 757 W/m 14,2 C 23,9 C 12,5 km/h (3 Bft)
19/05/2007 16:00 23,5 C 58 % 1012,2 hPa 0,0 l/m 9,8 km/h (2 Bft) E 1,00 h 0,508 mm 639 W/m 14,6 C 23,5 C 14,6 km/h (3 Bft)
19/05/2007 17:00 21,8 C 62 % 1012,2 hPa 0,0 l/m 8,2 km/h (2 Bft) E 0,48 h 0,457 mm 346 W/m 14,2 C 21,8 C 12,0 km/h (2 Bft)
19/05/2007 18:00 21,3 C 67 % 1012,2 hPa 0,0 l/m 4,6 km/h (1 Bft) E 0,73 h 0,254 mm 295 W/m 14,9 C 21,3 C 7,3 km/h (2 Bft)
19/05/2007 19:00 20,8 C 73 % 1011,9 hPa 0,0 l/m 3,2 km/h (1 Bft) E-NE 0,70 h 0,203 mm 153 W/m 15,8 C 20,8 C 5,0 km/h (1 Bft)
19/05/2007 20:00 18,9 C 81 % 1011,9 hPa 0,0 l/m 1,4 km/h (1 Bft) E-NE 0,02 h 0,102 mm 29 W/m 15,5 C 18,9 C 3,0 km/h (1 Bft)
19/05/2007 21:00 17,4 C 87 % 1012,2 hPa 0,0 l/m 0,2 km/h (0 Bft) E-NE 0,00 h 0,025 mm 0 W/m 15,3 C 17,4 C 0,6 km/h (0 Bft)
19/05/2007 22:00 16,9 C 90 % 1012,5 hPa 0,0 l/m 0,3 km/h (0 Bft) E-NE 0,00 h 0,000 mm 0 W/m 15,2 C 16,9 C 1,3 km/h (1 Bft)
19/05/2007 23:00 16,7 C 93 % 1012,4 hPa 0,0 l/m 0,1 km/h (0 Bft) E-NE 0,00 h 0,025 mm 0 W/m 15,5 C 16,7 C 0,7 km/h (0 Bft)
20/05/2007 00:00 16,5 C 93 % 1012,2 hPa 0,0 l/m 0,0 km/h (0 Bft) N 0,00 h 0,000 mm 0 W/m 15,4 C 16,5 C 0,0 km/h (0 Bft)
20/05/2007 01:00 16,4 C 93 % 1012,6 hPa 0,0 l/m 0,1 km/h (0 Bft) E-NE 0,00 h 0,000 mm 0 W/m 15,3 C 16,4 C 0,4 km/h (0 Bft)
20/05/2007 02:00 16,0 C 94 % 1012,7 hPa 0,0 l/m 0,0 km/h (0 Bft) N 0,00 h 0,000 mm 0 W/m 15,1 C 16,0 C 0,2 km/h (0 Bft)
20/05/2007 03:00 15,7 C 94 % 1012,7 hPa 0,0 l/m 1,2 km/h (1 Bft) O-NO 0,00 h 0,000 mm 0 W/m 14,7 C 15,7 C 2,5 km/h (1 Bft)
20/05/2007 04:00 15,2 C 94 % 1012,5 hPa 0,0 l/m 0,4 km/h (0 Bft) NO 0,00 h 0,000 mm 0 W/m 14,2 C 15,2 C 1,2 km/h (1 Bft)
20/05/2007 05:00 15,1 C 94 % 1012,3 hPa 0,0 l/m 3,8 km/h (1 Bft) O 0,00 h 0,000 mm 6 W/m 14,2 C 15,1 C 5,0 km/h (1 Bft)
20/05/2007 06:00 15,4 C 93 % 1012,3 hPa 0,0 l/m 0,7 km/h (0 Bft) O 0,70 h 0,000 mm 49 W/m 14,3 C 15,4 C 1,2 km/h (1 Bft)
20/05/2007 07:00 16,8 C 85 % 1012,7 hPa 0,0 l/m 0,2 km/h (0 Bft) O-NO 0,00 h 0,025 mm 75 W/m 14,2 C 16,8 C 0,9 km/h (0 Bft)
20/05/2007 08:00 18,4 C 82 % 1012,8 hPa 0,0 l/m 0,4 km/h (0 Bft) O 0,18 h 0,051 mm 194 W/m 15,3 C 18,4 C 1,5 km/h (1 Bft)
20/05/2007 09:00 19,6 C 76 % 1013,3 hPa 0,0 l/m 1,1 km/h (0 Bft) E 0,00 h 0,102 mm 201 W/m 15,2 C 19,6 C 2,3 km/h (1 Bft)
20/05/2007 10:00 21,1 C 71 % 1013,4 hPa 0,0 l/m 4,8 km/h (1 Bft) E 0,82 h 0,127 mm 596 W/m 15,5 C 21,1 C 7,5 km/h (2 Bft)
20/05/2007 11:00 23,2 C 64 % 1013,7 hPa 0,0 l/m 7,0 km/h (2 Bft) E 1,00 h 0,381 mm 812 W/m 16,0 C 23,2 C 11,1 km/h (2 Bft)
20/05/2007 12:00 23,7 C 59 % 1014,0 hPa 0,0 l/m 7,1 km/h (2 Bft) E 1,00 h 0,533 mm 841 W/m 15,3 C 23,7 C 11,1 km/h (2 Bft)
20/05/2007 13:00 24,1 C 57 % 1014,1 hPa 0,0 l/m 8,5 km/h (2 Bft) E 0,85 h 0,559 mm 739 W/m 15,0 C 24,1 C 12,2 km/h (2 Bft)
20/05/2007 14:00 24,8 C 52 % 1014,3 hPa 0,0 l/m 9,7 km/h (2 Bft) E 1,00 h 0,508 mm 830 W/m 14,3 C 24,8 C 14,3 km/h (3 Bft)
20/05/2007 15:00 25,2 C 48 % 1014,0 hPa 0,0 l/m 8,2 km/h (2 Bft) E 1,00 h 0,584 mm 759 W/m 13,5 C 25,2 C 12,7 km/h (3 Bft)
20/05/2007 16:00 24,8 C 49 % 1013,8 hPa 0,0 l/m 6,4 km/h (2 Bft) E 0,73 h 0,533 mm 546 W/m 13,3 C 24,8 C 9,3 km/h (2 Bft)
20/05/2007 17:00 24,8 C 46 % 1013,2 hPa 0,0 l/m 4,3 km/h (1 Bft) E-SE 1,00 h 0,406 mm 478 W/m 12,6 C 24,8 C 7,1 km/h (2 Bft)
20/05/2007 18:00 24,7 C 49 % 1012,8 hPa 0,0 l/m 2,4 km/h (1 Bft) E-SE 1,00 h 0,330 mm 310 W/m 13,2 C 24,7 C 4,7 km/h (1 Bft)
20/05/2007 19:00 23,7 C 51 % 1012,7 hPa 0,0 l/m 0,3 km/h (0 Bft) E-SE 0,78 h 0,229 mm 138 W/m 12,9 C 23,7 C 1,0 km/h (0 Bft)
20/05/2007 20:00 21,6 C 62 % 1012,7 hPa 0,0 l/m 0,5 km/h (0 Bft) E-SE 0,02 h 0,102 mm 22 W/m 13,9 C 21,6 C 1,1 km/h (1 Bft)
20/05/2007 21:00 20,2 C 64 % 1012,9 hPa 0,0 l/m 1,5 km/h (1 Bft) E-SE 0,00 h 0,025 mm 0 W/m 13,2 C 20,2 C 2,6 km/h (1 Bft)
20/05/2007 22:00 19,4 C 65 % 1013,1 hPa 0,0 l/m 2,2 km/h (1 Bft) N-NO 0,00 h 0,025 mm 0 W/m 12,6 C 19,4 C 4,0 km/h (1 Bft)
20/05/2007 23:00 19,0 C 65 % 1013,1 hPa 0,0 l/m 3,6 km/h (1 Bft) NO 0,00 h 0,051 mm 0 W/m 12,3 C 19,0 C 5,9 km/h (2 Bft)
Min-Date _ 16/05/07 18/05/07 17/05/07 - 14/05/07 - - - - 15/05/07 16/05/07 14/05/07
_ Min-Heure 02:10 16:43 19:45 - 00:37 - - - - 03:29 02:10 00:41
Minimum _ 12,0 C 33 % 1004,7 hPa - 0,0 km/h (0 Bft) - - - - 3,4 C 12,0 C 0,0 km/h (0 Bft)
Max-Date _ 20/05/07 20/05/07 14/05/07 14/05/07 15/05/07 - 14/05/07 15/05/07 20/05/07 14/05/07 20/05/07 15/05/07
_ Max-Heure 14:48 05:25 00:15 00:00 05:13 - 07:31 14:00 13:36 16:13 14:48 05:13
Maximum _ 25,7 C 95 % 1014,9 hPa 0,0 l/m 32,2 km/h
O-SO (5 Bft)
- 0,02 h 0,660 mm 1069 W/m 17,2 C 25,7 C 38,6 km/h
O-SO (5 Bft)
Moyenne _ 18,3 C 65 % 1010,9 hPa #0,0 l/m 6,1 km/h (2 Bft) E #74:26 h #35,244 mm 443 W/m 11,2 C 18,3 C 9,1 km/h (2 Bft)
Roquefort les pins